Time;durP1;ratioP1;P1;durP2;ratioP2;P2;SDS_P1;SDS_P2;PMS_P1;PMS_P2;Temp;Humidity;BMP_temperature;BMP_pressure;BME280_temperature;BME280_humidity;BME280_pressure;Samples;Min_cycle;Max_cycle;Signal;HPM_P1;HPM_P2
2021/05/23 00:02:11;;;;;;;13.70;8.27;;;;;;;;;;5058506;28;20213;-69
2021/05/23 00:04:36;;;;;;;8.87;7.07;;;;;;;;;;5057245;28;20675;-69
2021/05/23 00:07:02;;;;;;;12.27;7.40;;;;;;;;;;5056384;28;20178;-69
2021/05/23 00:09:27;;;;;;;13.00;7.70;;;;;;;;;;5058753;28;20201;-69
2021/05/23 00:11:53;;;;;;;16.63;9.03;;;;;;;;;;5059194;28;20789;-69
2021/05/23 00:14:19;;;;;;;13.87;8.57;;;;;;;;;;5059064;28;20173;-69
2021/05/23 00:16:44;;;;;;;12.07;8.73;;;;;;;;;;5057401;28;20526;-70
2021/05/23 00:19:09;;;;;;;15.87;8.90;;;;;;;;;;5061894;28;20190;-70
2021/05/23 00:21:34;;;;;;;14.47;10.03;;;;;;;;;;5060484;28;20173;-70
2021/05/23 00:24:00;;;;;;;17.37;10.07;;;;;;;;;;5058367;28;20209;-70
2021/05/23 00:26:25;;;;;;;17.27;10.07;;;;;;;;;;5055069;28;20209;-70
2021/05/23 00:28:52;;;;;;;16.20;10.43;;;;;;;;;;5058210;28;20201;-70
2021/05/23 00:31:17;;;;;;;18.67;11.03;;;;;;;;;;5062758;28;20188;-69
2021/05/23 00:33:43;;;;;;;14.23;9.30;;;;;;;;;;5056257;28;20202;-69
2021/05/23 00:36:08;;;;;;;14.50;10.53;;;;;;;;;;5061729;28;20188;-70
2021/05/23 00:38:33;;;;;;;17.80;10.63;;;;;;;;;;5061804;28;20576;-70
2021/05/23 00:40:59;;;;;;;16.17;10.67;;;;;;;;;;5064476;28;20181;-69
2021/05/23 00:43:24;;;;;;;15.83;10.00;;;;;;;;;;5057374;28;20206;-70
2021/05/23 00:45:49;;;;;;;18.47;9.97;;;;;;;;;;5059941;28;20277;-70
2021/05/23 00:48:15;;;;;;;17.00;10.83;;;;;;;;;;5059226;28;20647;-69
2021/05/23 00:50:41;;;;;;;17.70;11.37;;;;;;;;;;5057643;28;20289;-70
2021/05/23 00:53:06;;;;;;;16.13;11.50;;;;;;;;;;5058769;28;20190;-70
2021/05/23 00:55:32;;;;;;;18.83;11.83;;;;;;;;;;5056770;28;20185;-69
2021/05/23 00:57:58;;;;;;;18.57;11.67;;;;;;;;;;5058835;28;20212;-70
2021/05/23 01:00:32;;;;;;;19.90;11.67;;;;;;;;;;5058132;28;20185;-70
2021/05/23 01:02:59;;;;;;;21.47;11.87;;;;;;;;;;5061184;28;20279;-70
2021/05/23 01:05:24;;;;;;;20.50;11.73;;;;;;;;;;5054538;28;20580;-70
2021/05/23 01:07:49;;;;;;;24.53;11.77;;;;;;;;;;5057684;28;20177;-70
2021/05/23 01:10:21;;;;;;;16.27;11.70;;;;;;;;;;5055967;28;20584;-71
2021/05/23 01:12:49;;;;;;;18.73;11.77;;;;;;;;;;5054465;28;20198;-70
2021/05/23 01:15:15;;;;;;;19.03;11.13;;;;;;;;;;5061335;28;20184;-70
2021/05/23 01:17:42;;;;;;;20.27;12.90;;;;;;;;;;5054607;28;20260;-69
2021/05/23 01:20:10;;;;;;;20.63;11.63;;;;;;;;;;5055540;28;20673;-70
2021/05/23 01:22:38;;;;;;;20.73;11.87;;;;;;;;;;5052966;28;20209;-70
2021/05/23 01:25:12;;;;;;;22.13;13.03;;;;;;;;;;5055521;28;20177;-70
2021/05/23 01:27:44;;;;;;;15.70;10.33;;;;;;;;;;5056862;28;20267;-70
2021/05/23 01:30:11;;;;;;;19.53;11.37;;;;;;;;;;5057274;28;20205;-70
2021/05/23 01:32:36;;;;;;;16.37;11.77;;;;;;;;;;5060916;28;20232;-70
2021/05/23 01:35:06;;;;;;;21.87;12.00;;;;;;;;;;5060902;28;20639;-69
2021/05/23 01:37:32;;;;;;;18.80;11.57;;;;;;;;;;5059640;28;20214;-70
2021/05/23 01:39:57;;;;;;;23.87;13.57;;;;;;;;;;5055857;28;20272;-69
2021/05/23 01:42:23;;;;;;;20.90;11.10;;;;;;;;;;5062055;28;20196;-70
2021/05/23 01:44:48;;;;;;;20.57;11.30;;;;;;;;;;5052681;28;20651;-69
2021/05/23 01:47:13;;;;;;;17.93;11.10;;;;;;;;;;5059398;28;20237;-70
2021/05/23 01:49:39;;;;;;;21.93;11.87;;;;;;;;;;5059057;28;20253;-70
2021/05/23 01:52:04;;;;;;;19.57;11.00;;;;;;;;;;5055397;28;20193;-69
2021/05/23 01:54:29;;;;;;;24.33;12.17;;;;;;;;;;5055217;28;20191;-69
2021/05/23 01:56:54;;;;;;;23.00;12.77;;;;;;;;;;5060733;28;20180;-69
2021/05/23 01:59:19;;;;;;;20.87;12.70;;;;;;;;;;5065667;28;20188;-69
2021/05/23 02:01:45;;;;;;;20.37;12.20;;;;;;;;;;5063158;28;20183;-69
2021/05/23 02:04:10;;;;;;;23.97;12.33;;;;;;;;;;5059532;28;20713;-70
2021/05/23 02:06:35;;;;;;;16.20;10.47;;;;;;;;;;5058576;28;20269;-69
2021/05/23 02:09:00;;;;;;;22.43;11.23;;;;;;;;;;5065711;28;20192;-70
2021/05/23 02:11:25;;;;;;;21.77;10.77;;;;;;;;;;5064087;28;20187;-70
2021/05/23 02:13:51;;;;;;;20.30;12.47;;;;;;;;;;5058572;28;20201;-70
2021/05/23 02:16:18;;;;;;;19.23;11.40;;;;;;;;;;5062597;28;20177;-69
2021/05/23 02:18:44;;;;;;;21.77;13.00;;;;;;;;;;5063755;28;20654;-69
2021/05/23 02:21:09;;;;;;;22.93;12.20;;;;;;;;;;5059821;28;20178;-69
2021/05/23 02:23:34;;;;;;;23.67;12.70;;;;;;;;;;5062003;28;20249;-68
2021/05/23 02:25:59;;;;;;;21.83;12.53;;;;;;;;;;5058154;28;20186;-69
2021/05/23 02:28:25;;;;;;;21.23;12.60;;;;;;;;;;5061600;28;20181;-68
2021/05/23 02:30:55;;;;;;;23.40;13.00;;;;;;;;;;5061367;28;20184;-69
2021/05/23 02:33:21;;;;;;;27.83;15.67;;;;;;;;;;5059971;28;20748;-68
2021/05/23 02:35:47;;;;;;;31.73;15.37;;;;;;;;;;5063416;28;20654;-68
2021/05/23 02:38:13;;;;;;;26.77;14.37;;;;;;;;;;5064150;28;20185;-69
2021/05/23 02:40:39;;;;;;;23.77;15.23;;;;;;;;;;5060917;28;20183;-69
2021/05/23 02:43:05;;;;;;;26.90;15.63;;;;;;;;;;5057909;28;20194;-68
2021/05/23 02:45:34;;;;;;;25.83;14.13;;;;;;;;;;5056168;28;20194;-69
2021/05/23 02:47:59;;;;;;;25.67;15.57;;;;;;;;;;5056640;28;20252;-69
2021/05/23 02:50:26;;;;;;;27.87;16.07;;;;;;;;;;5064721;28;20300;-69
2021/05/23 02:52:52;;;;;;;30.93;17.53;;;;;;;;;;5062645;28;20201;-69
2021/05/23 02:55:18;;;;;;;28.23;16.80;;;;;;;;;;5061237;28;20177;-69
2021/05/23 02:57:43;;;;;;;27.27;16.30;;;;;;;;;;5053726;28;20555;-69
2021/05/23 03:00:10;;;;;;;28.77;17.77;;;;;;;;;;5062827;28;20181;-69
2021/05/23 03:02:35;;;;;;;31.33;17.40;;;;;;;;;;5066764;28;20238;-68
2021/05/23 03:05:01;;;;;;;34.13;21.40;;;;;;;;;;5056458;28;20189;-69
2021/05/23 03:07:26;;;;;;;31.53;19.77;;;;;;;;;;5061007;28;20259;-69
2021/05/23 03:09:51;;;;;;;32.97;19.23;;;;;;;;;;5058831;28;20254;-68
2021/05/23 03:12:17;;;;;;;28.37;18.20;;;;;;;;;;5062063;28;20207;-68
2021/05/23 03:14:42;;;;;;;31.27;20.13;;;;;;;;;;5063197;28;20311;-68
2021/05/23 03:17:11;;;;;;;32.57;19.77;;;;;;;;;;5060328;28;20230;-68
2021/05/23 03:19:36;;;;;;;31.60;20.43;;;;;;;;;;5056855;28;20650;-68
2021/05/23 03:22:03;;;;;;;28.63;20.63;;;;;;;;;;5056405;28;20189;-68
2021/05/23 03:24:28;;;;;;;32.47;21.20;;;;;;;;;;5063879;28;20184;-68
2021/05/23 03:26:53;;;;;;;38.20;23.27;;;;;;;;;;5055653;28;20174;-68
2021/05/23 03:29:18;;;;;;;37.80;23.00;;;;;;;;;;5061029;28;20207;-68
2021/05/23 03:31:44;;;;;;;39.57;24.60;;;;;;;;;;5062062;28;20177;-68
2021/05/23 03:34:09;;;;;;;41.53;24.47;;;;;;;;;;5060907;28;20173;-68
2021/05/23 03:36:34;;;;;;;42.83;24.63;;;;;;;;;;5065700;28;20555;-68
2021/05/23 03:38:59;;;;;;;41.93;25.10;;;;;;;;;;5059374;28;20181;-68
2021/05/23 03:41:24;;;;;;;47.77;25.87;;;;;;;;;;5058781;28;20172;-68
2021/05/23 03:43:50;;;;;;;42.50;26.73;;;;;;;;;;5054344;28;20281;-68
2021/05/23 03:46:15;;;;;;;38.90;26.00;;;;;;;;;;5057610;28;20223;-68
2021/05/23 03:48:40;;;;;;;39.63;25.13;;;;;;;;;;5058858;28;20194;-69
2021/05/23 03:51:05;;;;;;;38.20;24.83;;;;;;;;;;5059371;28;20174;-70
2021/05/23 03:53:30;;;;;;;40.83;26.00;;;;;;;;;;5061676;28;20196;-70
2021/05/23 03:55:56;;;;;;;41.00;25.20;;;;;;;;;;5055787;28;20662;-71
2021/05/23 03:58:21;;;;;;;36.43;24.30;;;;;;;;;;5062373;28;20169;-71
2021/05/23 04:00:46;;;;;;;38.53;24.93;;;;;;;;;;5060569;28;20560;-71
2021/05/23 04:03:11;;;;;;;19.50;14.57;;;;;;;;;;5061048;28;20193;-72
2021/05/23 04:05:36;;;;;;;23.83;16.37;;;;;;;;;;5057158;28;20237;-72
2021/05/23 04:08:02;;;;;;;31.67;18.57;;;;;;;;;;5054797;28;20188;-72
2021/05/23 04:10:31;;;;;;;21.47;15.67;;;;;;;;;;5062444;28;20192;-72
2021/05/23 04:12:57;;;;;;;19.93;13.63;;;;;;;;;;5056916;28;20247;-72
2021/05/23 04:15:23;;;;;;;18.73;12.93;;;;;;;;;;5061073;28;20177;-72
2021/05/23 04:17:48;;;;;;;15.00;10.40;;;;;;;;;;5054669;28;20182;-72
2021/05/23 04:20:17;;;;;;;12.13;9.90;;;;;;;;;;5063407;28;20260;-73
2021/05/23 04:22:42;;;;;;;8.97;7.30;;;;;;;;;;5062140;28;20254;-72
2021/05/23 04:25:09;;;;;;;10.67;8.10;;;;;;;;;;5058382;28;20856;-73
2021/05/23 04:27:35;;;;;;;10.57;8.80;;;;;;;;;;5055414;28;20562;-71
2021/05/23 04:30:00;;;;;;;11.33;7.70;;;;;;;;;;5057909;28;20200;-71
2021/05/23 04:32:25;;;;;;;9.20;7.27;;;;;;;;;;5066935;28;20197;-71
2021/05/23 04:34:50;;;;;;;7.80;6.13;;;;;;;;;;5059865;28;20170;-71
2021/05/23 04:37:16;;;;;;;7.20;6.03;;;;;;;;;;5059644;28;20185;-71
2021/05/23 04:39:41;;;;;;;6.77;5.27;;;;;;;;;;5056967;28;20701;-71
2021/05/23 04:42:07;;;;;;;8.63;7.17;;;;;;;;;;5060211;28;20201;-71
2021/05/23 04:44:32;;;;;;;7.03;6.33;;;;;;;;;;5054875;28;20178;-71
2021/05/23 04:46:57;;;;;;;7.37;6.47;;;;;;;;;;5060271;28;20180;-71
2021/05/23 04:49:22;;;;;;;8.27;7.27;;;;;;;;;;5060910;28;20204;-71
2021/05/23 04:51:47;;;;;;;10.83;8.20;;;;;;;;;;5055378;28;20768;-71
2021/05/23 04:54:13;;;;;;;9.40;7.37;;;;;;;;;;5057992;28;20170;-71
2021/05/23 04:56:38;;;;;;;15.10;9.27;;;;;;;;;;5058695;28;20188;-71
2021/05/23 04:59:03;;;;;;;9.93;8.30;;;;;;;;;;5060166;28;20176;-71
2021/05/23 05:01:28;;;;;;;9.20;7.43;;;;;;;;;;5062745;28;20585;-71
2021/05/23 05:03:53;;;;;;;12.43;10.10;;;;;;;;;;5054173;28;20197;-71
2021/05/23 05:06:19;;;;;;;12.50;9.13;;;;;;;;;;5058130;28;20213;-71
2021/05/23 05:08:46;;;;;;;17.37;12.23;;;;;;;;;;5054787;28;20177;-71
2021/05/23 05:11:11;;;;;;;21.93;14.13;;;;;;;;;;5061505;28;20704;-70
2021/05/23 05:13:36;;;;;;;24.13;16.73;;;;;;;;;;5054990;28;20198;-71
2021/05/23 05:16:01;;;;;;;39.13;17.87;;;;;;;;;;5059279;28;20199;-71
2021/05/23 05:18:26;;;;;;;27.40;19.47;;;;;;;;;;5059690;28;20205;-71
2021/05/23 05:20:53;;;;;;;27.70;18.80;;;;;;;;;;5057873;28;20189;-71
2021/05/23 05:23:19;;;;;;;28.40;20.10;;;;;;;;;;5059982;28;20212;-70
2021/05/23 05:25:44;;;;;;;26.33;17.50;;;;;;;;;;5054549;28;20180;-70
2021/05/23 05:28:09;;;;;;;27.80;17.93;;;;;;;;;;5057553;28;20174;-70
2021/05/23 05:30:34;;;;;;;30.40;18.03;;;;;;;;;;5053154;28;20259;-71
2021/05/23 05:33:00;;;;;;;30.10;18.30;;;;;;;;;;5058660;28;20200;-73
2021/05/23 05:35:25;;;;;;;29.43;18.13;;;;;;;;;;5062791;28;20173;-70
2021/05/23 05:37:50;;;;;;;33.10;17.73;;;;;;;;;;5063456;28;20609;-70
2021/05/23 05:40:16;;;;;;;30.03;17.60;;;;;;;;;;5057285;28;20262;-71
2021/05/23 05:42:41;;;;;;;25.17;16.23;;;;;;;;;;5060624;28;20197;-71
2021/05/23 05:45:07;;;;;;;27.10;15.27;;;;;;;;;;5056517;28;20173;-71
2021/05/23 05:47:32;;;;;;;29.87;16.93;;;;;;;;;;5057779;28;20654;-71
2021/05/23 05:49:57;;;;;;;29.23;16.57;;;;;;;;;;5061142;28;20628;-71
2021/05/23 05:52:22;;;;;;;24.43;14.07;;;;;;;;;;5054935;28;20234;-71
2021/05/23 05:54:48;;;;;;;27.73;14.50;;;;;;;;;;5057664;28;20592;-70
2021/05/23 05:57:13;;;;;;;19.73;12.23;;;;;;;;;;5051645;28;20185;-71
2021/05/23 05:59:38;;;;;;;21.77;13.27;;;;;;;;;;5055071;28;20188;-71
2021/05/23 06:02:05;;;;;;;25.77;12.10;;;;;;;;;;5055883;28;20619;-71
2021/05/23 06:04:31;;;;;;;19.53;10.73;;;;;;;;;;5052223;28;20182;-71
2021/05/23 06:06:56;;;;;;;20.77;10.60;;;;;;;;;;5056454;28;20177;-70
2021/05/23 06:09:21;;;;;;;17.23;9.23;;;;;;;;;;5055457;28;20289;-72
2021/05/23 06:11:46;;;;;;;16.07;7.93;;;;;;;;;;5057703;28;20169;-70
2021/05/23 06:14:11;;;;;;;15.23;7.67;;;;;;;;;;5057456;28;20169;-70
2021/05/23 06:16:36;;;;;;;16.07;8.13;;;;;;;;;;5056161;28;20231;-70
2021/05/23 06:19:02;;;;;;;11.37;6.77;;;;;;;;;;5059850;28;20208;-70
2021/05/23 06:21:27;;;;;;;15.13;5.83;;;;;;;;;;5056255;28;20192;-71
2021/05/23 06:23:52;;;;;;;14.60;5.57;;;;;;;;;;5057203;28;20198;-70
2021/05/23 06:26:17;;;;;;;15.93;5.67;;;;;;;;;;5055421;28;20196;-70
2021/05/23 06:28:42;;;;;;;13.70;5.97;;;;;;;;;;5055436;28;20188;-72
2021/05/23 06:31:08;;;;;;;13.43;5.17;;;;;;;;;;5056723;28;20189;-70
2021/05/23 06:33:34;;;;;;;13.63;5.47;;;;;;;;;;5052568;28;20198;-70
2021/05/23 06:35:59;;;;;;;11.90;5.17;;;;;;;;;;5061723;28;20720;-70
2021/05/23 06:38:24;;;;;;;22.47;7.20;;;;;;;;;;5062259;28;20200;-70
2021/05/23 06:40:49;;;;;;;15.80;5.47;;;;;;;;;;5054964;28;20197;-70
2021/05/23 06:43:15;;;;;;;12.57;5.40;;;;;;;;;;5058409;28;20375;-70
2021/05/23 06:45:40;;;;;;;12.17;5.13;;;;;;;;;;5058215;28;20177;-70
2021/05/23 06:48:05;;;;;;;12.80;4.77;;;;;;;;;;5057980;28;20478;-70
2021/05/23 06:50:30;;;;;;;15.90;5.53;;;;;;;;;;5062776;28;20232;-70
2021/05/23 06:52:55;;;;;;;11.57;5.57;;;;;;;;;;5059519;28;20221;-70
2021/05/23 06:55:21;;;;;;;13.47;5.93;;;;;;;;;;5059356;28;20593;-70
2021/05/23 06:57:46;;;;;;;10.73;5.50;;;;;;;;;;5055752;28;20174;-70
2021/05/23 07:00:11;;;;;;;13.40;5.37;;;;;;;;;;5059086;28;20193;-70
2021/05/23 07:02:37;;;;;;;12.87;5.17;;;;;;;;;;5065229;28;20649;-70
2021/05/23 07:05:03;;;;;;;18.33;5.10;;;;;;;;;;5058721;28;20174;-70
2021/05/23 07:07:28;;;;;;;11.47;4.60;;;;;;;;;;5057422;28;20548;-70
2021/05/23 07:09:54;;;;;;;13.57;5.37;;;;;;;;;;5061299;28;20203;-69
2021/05/23 07:12:19;;;;;;;11.60;4.83;;;;;;;;;;5059119;28;20212;-69
2021/05/23 07:14:44;;;;;;;7.67;3.70;;;;;;;;;;5060021;28;20246;-69
2021/05/23 07:17:09;;;;;;;8.17;3.27;;;;;;;;;;5058460;28;20643;-70
2021/05/23 07:19:35;;;;;;;11.60;4.57;;;;;;;;;;5056431;28;20248;-70
2021/05/23 07:22:00;;;;;;;9.60;4.27;;;;;;;;;;5062778;28;20226;-70
2021/05/23 07:24:25;;;;;;;14.13;4.67;;;;;;;;;;5063894;28;20677;-70
2021/05/23 07:26:50;;;;;;;10.63;4.83;;;;;;;;;;5058270;28;20185;-70
2021/05/23 07:29:15;;;;;;;13.77;5.47;;;;;;;;;;5059310;28;20202;-71
2021/05/23 07:31:40;;;;;;;9.37;4.63;;;;;;;;;;5057415;28;20181;-70
2021/05/23 07:34:06;;;;;;;10.30;5.60;;;;;;;;;;5059705;28;20197;-70
2021/05/23 07:36:31;;;;;;;10.30;5.77;;;;;;;;;;5071946;28;20200;-69
2021/05/23 07:38:56;;;;;;;11.50;5.60;;;;;;;;;;5058683;28;20221;-69
2021/05/23 07:41:22;;;;;;;12.50;5.87;;;;;;;;;;5066250;28;20172;-70
2021/05/23 07:43:47;;;;;;;8.80;5.77;;;;;;;;;;5057966;28;20675;-71
2021/05/23 07:46:12;;;;;;;10.07;4.97;;;;;;;;;;5061119;28;20169;-70
2021/05/23 07:48:38;;;;;;;12.03;5.13;;;;;;;;;;5059293;28;20169;-69
2021/05/23 07:51:03;;;;;;;10.33;5.00;;;;;;;;;;5058236;28;20564;-70
2021/05/23 07:53:29;;;;;;;13.47;5.67;;;;;;;;;;5055772;28;20697;-69
2021/05/23 07:55:54;;;;;;;11.87;4.13;;;;;;;;;;5055306;28;20235;-70
2021/05/23 07:58:19;;;;;;;9.17;3.67;;;;;;;;;;5061865;28;20499;-69
2021/05/23 08:00:44;;;;;;;8.40;3.90;;;;;;;;;;5057540;28;20263;-70
2021/05/23 08:03:09;;;;;;;11.10;4.27;;;;;;;;;;5059327;28;20197;-72
2021/05/23 08:05:35;;;;;;;6.10;2.70;;;;;;;;;;5058088;28;20178;-70
2021/05/23 08:08:00;;;;;;;4.63;3.20;;;;;;;;;;5065998;28;20341;-70
2021/05/23 08:10:25;;;;;;;6.93;3.08;;;;;;;;;;5062198;28;20229;-70
2021/05/23 08:12:50;;;;;;;8.67;3.60;;;;;;;;;;5055011;28;20194;-70
2021/05/23 08:15:16;;;;;;;3.13;2.40;;;;;;;;;;5062175;28;20311;-69
2021/05/23 08:17:43;;;;;;;8.77;2.50;;;;;;;;;;5058342;28;20181;-72
2021/05/23 08:20:08;;;;;;;6.07;2.47;;;;;;;;;;5056909;28;20197;-70
2021/05/23 08:22:34;;;;;;;4.03;1.73;;;;;;;;;;5061539;28;20270;-71
2021/05/23 08:25:01;;;;;;;3.53;1.30;;;;;;;;;;5057985;28;20328;-70
2021/05/23 08:27:26;;;;;;;3.70;1.43;;;;;;;;;;5060038;28;20197;-70
2021/05/23 08:29:51;;;;;;;3.73;1.60;;;;;;;;;;5055482;28;20287;-70
2021/05/23 08:32:17;;;;;;;6.07;1.67;;;;;;;;;;5056889;28;20603;-70
2021/05/23 08:34:42;;;;;;;5.47;1.58;;;;;;;;;;5053638;28;20261;-72
2021/05/23 08:37:07;;;;;;;5.90;1.77;;;;;;;;;;5067154;28;20238;-69
2021/05/23 08:39:32;;;;;;;6.03;2.03;;;;;;;;;;5060417;28;20280;-70
2021/05/23 08:41:57;;;;;;;6.93;1.80;;;;;;;;;;5058983;28;20651;-70
2021/05/23 08:44:23;;;;;;;6.05;2.08;;;;;;;;;;5055580;28;20173;-69
2021/05/23 08:46:52;;;;;;;10.57;2.80;;;;;;;;;;5060402;28;20178;-69
2021/05/23 08:49:18;;;;;;;9.32;2.53;;;;;;;;;;5059625;28;20208;-70
2021/05/23 08:51:43;;;;;;;7.30;2.63;;;;;;;;;;5058723;28;20209;-71
2021/05/23 08:54:09;;;;;;;5.70;2.13;;;;;;;;;;5059170;28;20683;-69
2021/05/23 08:56:34;;;;;;;9.38;2.40;;;;;;;;;;5056439;28;20177;-70
2021/05/23 08:58:59;;;;;;;8.27;3.00;;;;;;;;;;5055055;28;20213;-68
2021/05/23 09:01:25;;;;;;;8.05;2.47;;;;;;;;;;5062573;28;20226;-70
2021/05/23 09:03:57;;;;;;;4.75;2.92;;;;;;;;;;5057948;28;20205;-72
2021/05/23 09:06:29;;;;;;;6.07;2.15;;;;;;;;;;5058357;28;20198;-71
2021/05/23 09:08:59;;;;;;;8.40;3.03;;;;;;;;;;5057230;28;20174;-71
2021/05/23 09:11:24;;;;;;;6.95;2.17;;;;;;;;;;5063711;28;20219;-70
2021/05/23 09:13:51;;;;;;;6.82;3.17;;;;;;;;;;5055099;28;20217;-70
2021/05/23 09:16:17;;;;;;;8.38;2.17;;;;;;;;;;5059238;28;20196;-70
2021/05/23 09:18:52;;;;;;;8.43;2.03;;;;;;;;;;5053924;28;20639;-69
2021/05/23 09:21:20;;;;;;;4.40;1.63;;;;;;;;;;5063651;28;20187;-69
2021/05/23 09:23:57;;;;;;;3.90;2.00;;;;;;;;;;5058577;28;20192;-70
2021/05/23 09:26:24;;;;;;;9.15;2.88;;;;;;;;;;5059846;28;20551;-69
2021/05/23 09:28:50;;;;;;;6.43;2.20;;;;;;;;;;5064346;28;20172;-70
2021/05/23 09:31:23;;;;;;;9.32;2.00;;;;;;;;;;5061957;28;20174;-69
2021/05/23 09:33:50;;;;;;;8.13;2.20;;;;;;;;;;5063720;28;20204;-70
2021/05/23 09:36:16;;;;;;;4.45;2.05;;;;;;;;;;5064779;28;20583;-70
2021/05/23 09:38:50;;;;;;;9.57;3.10;;;;;;;;;;5061923;28;20193;-71
2021/05/23 09:41:16;;;;;;;5.22;2.30;;;;;;;;;;5066990;28;20188;-70
2021/05/23 09:43:41;;;;;;;6.25;2.30;;;;;;;;;;5057721;28;20492;-71
2021/05/23 09:46:06;;;;;;;6.90;2.70;;;;;;;;;;5065446;28;20668;-70
2021/05/23 09:48:32;;;;;;;8.85;2.08;;;;;;;;;;5066348;28;20177;-72
2021/05/23 09:51:08;;;;;;;5.22;2.25;;;;;;;;;;5060788;28;20595;-71
2021/05/23 09:53:33;;;;;;;6.63;2.28;;;;;;;;;;5060434;28;20193;-70
2021/05/23 09:56:03;;;;;;;3.55;1.77;;;;;;;;;;5061030;28;20652;-70
2021/05/23 09:58:34;;;;;;;4.28;1.60;;;;;;;;;;5059369;28;20216;-71
2021/05/23 10:01:00;;;;;;;3.42;1.52;;;;;;;;;;5059467;28;20268;-71
2021/05/23 10:03:26;;;;;;;3.72;2.00;;;;;;;;;;5063489;28;20322;-69
2021/05/23 10:05:52;;;;;;;3.42;1.55;;;;;;;;;;5060169;28;20290;-72
2021/05/23 10:08:17;;;;;;;4.20;1.40;;;;;;;;;;5059575;28;20220;-69
2021/05/23 10:10:43;;;;;;;8.00;1.90;;;;;;;;;;5062458;28;20209;-69
2021/05/23 10:13:08;;;;;;;6.70;1.40;;;;;;;;;;5059912;28;20207;-70
2021/05/23 10:15:33;;;;;;;5.73;1.80;;;;;;;;;;5063411;28;20268;-70
2021/05/23 10:17:58;;;;;;;5.93;1.50;;;;;;;;;;5069859;28;20246;-70
2021/05/23 10:20:28;;;;;;;4.70;1.90;;;;;;;;;;5065709;28;20204;-70
2021/05/23 10:22:53;;;;;;;3.58;1.45;;;;;;;;;;5071003;28;20197;-70
2021/05/23 10:25:19;;;;;;;2.25;1.02;;;;;;;;;;5065748;28;20568;-71
2021/05/23 10:27:45;;;;;;;4.28;1.75;;;;;;;;;;5066035;28;20623;-71
2021/05/23 10:30:11;;;;;;;3.93;1.13;;;;;;;;;;5067455;28;20204;-70
2021/05/23 10:32:37;;;;;;;4.90;1.85;;;;;;;;;;5066551;28;20271;-71
2021/05/23 10:35:13;;;;;;;3.78;1.08;;;;;;;;;;5067139;28;20177;-69
2021/05/23 10:37:38;;;;;;;3.25;1.05;;;;;;;;;;5064362;28;20242;-71
2021/05/23 10:40:04;;;;;;;3.08;1.15;;;;;;;;;;5069170;28;20185;-70
2021/05/23 10:42:31;;;;;;;4.13;1.13;;;;;;;;;;5061807;28;20678;-70
2021/05/23 10:44:57;;;;;;;2.80;0.93;;;;;;;;;;5064420;28;20264;-70
2021/05/23 10:47:25;;;;;;;4.28;1.48;;;;;;;;;;5065466;28;20181;-70
2021/05/23 10:49:53;;;;;;;6.00;1.17;;;;;;;;;;5068123;28;20201;-71
2021/05/23 10:52:18;;;;;;;4.20;1.05;;;;;;;;;;5065358;28;20207;-70
2021/05/23 10:54:59;;;;;;;4.50;1.00;;;;;;;;;;5061120;28;20177;-71
2021/05/23 10:57:24;;;;;;;3.83;1.10;;;;;;;;;;5060344;28;20169;-70
2021/05/23 10:59:56;;;;;;;3.15;1.48;;;;;;;;;;5065297;28;20570;-69
2021/05/23 11:02:32;;;;;;;2.20;0.90;;;;;;;;;;5068068;28;20197;-70
2021/05/23 11:04:58;;;;;;;3.70;1.02;;;;;;;;;;5062366;28;20177;-70
2021/05/23 11:07:23;;;;;;;4.70;0.93;;;;;;;;;;5057688;28;20719;-71
2021/05/23 11:09:48;;;;;;;9.52;1.77;;;;;;;;;;5057758;28;20688;-71
2021/05/23 11:12:14;;;;;;;3.55;1.00;;;;;;;;;;5067813;28;20464;-71
2021/05/23 11:14:39;;;;;;;4.30;1.15;;;;;;;;;;5065953;28;20169;-71
2021/05/23 11:17:07;;;;;;;2.17;0.90;;;;;;;;;;5069525;28;20176;-70
2021/05/23 11:19:32;;;;;;;8.45;2.30;;;;;;;;;;5060787;28;20232;-70
2021/05/23 11:21:58;;;;;;;2.38;1.08;;;;;;;;;;5058166;28;20205;-71
2021/05/23 11:24:27;;;;;;;1.45;1.08;;;;;;;;;;5062610;28;20166;-70
2021/05/23 11:26:53;;;;;;;1.85;1.00;;;;;;;;;;5063355;28;20181;-70
2021/05/23 11:29:19;;;;;;;2.92;1.02;;;;;;;;;;5060976;28;20197;-70
2021/05/23 11:31:45;;;;;;;4.75;1.10;;;;;;;;;;5067846;28;20330;-69
2021/05/23 11:34:13;;;;;;;2.13;1.00;;;;;;;;;;5058474;28;20178;-70
2021/05/23 11:36:39;;;;;;;5.00;1.17;;;;;;;;;;5063217;28;20211;-70
2021/05/23 11:39:17;;;;;;;3.75;1.02;;;;;;;;;;5059296;28;20181;-71
2021/05/23 11:41:43;;;;;;;2.75;0.93;;;;;;;;;;5067751;28;20318;-70
2021/05/23 11:44:11;;;;;;;4.35;1.20;;;;;;;;;;5067301;28;20528;-70
2021/05/23 11:46:37;;;;;;;2.75;1.20;;;;;;;;;;5063969;28;20562;-71
2021/05/23 11:49:03;;;;;;;4.63;1.65;;;;;;;;;;5062587;28;20169;-70
2021/05/23 11:51:29;;;;;;;3.03;1.38;;;;;;;;;;5059623;28;20173;-71
2021/05/23 11:53:55;;;;;;;5.50;1.88;;;;;;;;;;5059000;28;20617;-70
2021/05/23 11:56:28;;;;;;;4.70;1.73;;;;;;;;;;5061069;28;20178;-71
2021/05/23 11:58:54;;;;;;;4.38;1.50;;;;;;;;;;5057867;28;20178;-71
2021/05/23 12:01:26;;;;;;;4.05;1.17;;;;;;;;;;5067010;28;20614;-70
2021/05/23 12:03:55;;;;;;;4.80;1.10;;;;;;;;;;5061865;28;20251;-71
2021/05/23 12:06:20;;;;;;;1.60;1.00;;;;;;;;;;5069447;28;20169;-70
2021/05/23 12:08:45;;;;;;;3.97;1.35;;;;;;;;;;5062957;28;20598;-70
2021/05/23 12:11:11;;;;;;;5.20;1.67;;;;;;;;;;5065098;28;20209;-70
2021/05/23 12:13:36;;;;;;;6.70;1.45;;;;;;;;;;5061565;28;20744;-69
2021/05/23 12:16:01;;;;;;;3.58;1.63;;;;;;;;;;5064636;28;20212;-71
2021/05/23 12:18:46;;;;;;;6.18;2.03;;;;;;;;;;5065794;28;20630;-70
2021/05/23 12:21:15;;;;;;;5.00;1.38;;;;;;;;;;5060380;28;20400;-71
2021/05/23 12:23:41;;;;;;;2.53;0.82;;;;;;;;;;5063352;28;20196;-70
2021/05/23 12:26:10;;;;;;;7.95;1.77;;;;;;;;;;5055940;28;20215;-71
2021/05/23 12:28:36;;;;;;;4.00;1.30;;;;;;;;;;5060688;28;20194;-71
2021/05/23 12:31:04;;;;;;;2.47;1.27;;;;;;;;;;5062108;28;20233;-71
2021/05/23 12:33:30;;;;;;;4.30;1.45;;;;;;;;;;5056892;28;20225;-71
2021/05/23 12:36:03;;;;;;;4.78;1.10;;;;;;;;;;5059509;28;20466;-72
2021/05/23 12:38:28;;;;;;;9.25;2.60;;;;;;;;;;5056756;28;20193;-73
2021/05/23 12:40:56;;;;;;;4.88;1.17;;;;;;;;;;5060493;28;20256;-72
2021/05/23 12:43:25;;;;;;;4.60;1.65;;;;;;;;;;5056463;28;20204;-71
2021/05/23 12:45:50;;;;;;;4.70;1.60;;;;;;;;;;5053425;28;20616;-72
2021/05/23 12:48:16;;;;;;;5.03;1.50;;;;;;;;;;5057481;28;20261;-70
2021/05/23 12:50:41;;;;;;;3.35;1.80;;;;;;;;;;5057357;28;20201;-72
2021/05/23 12:53:07;;;;;;;4.82;1.88;;;;;;;;;;5059620;28;20219;-71
2021/05/23 12:55:37;;;;;;;3.58;1.52;;;;;;;;;;5055165;28;20166;-70
2021/05/23 12:58:02;;;;;;;3.65;1.75;;;;;;;;;;5061343;28;20203;-70
2021/05/23 13:00:28;;;;;;;3.30;1.50;;;;;;;;;;5063779;28;20557;-71
2021/05/23 13:03:04;;;;;;;5.20;1.80;;;;;;;;;;5065365;28;20209;-71
2021/05/23 13:05:29;;;;;;;3.67;1.92;;;;;;;;;;5061574;28;20536;-71
2021/05/23 13:07:54;;;;;;;3.15;1.50;;;;;;;;;;5062963;28;20180;-73
2021/05/23 13:10:19;;;;;;;4.27;1.60;;;;;;;;;;5061586;28;20697;-68
2021/05/23 13:12:44;;;;;;;4.57;2.10;;;;;;;;;;5058786;28;20471;-72
2021/05/23 13:15:10;;;;;;;4.77;1.67;;;;;;;;;;5061682;28;20931;-70
2021/05/23 13:17:42;;;;;;;4.22;1.88;;;;;;;;;;5059862;28;20460;-70
2021/05/23 13:20:09;;;;;;;2.30;1.98;;;;;;;;;;5058755;28;20200;-72
2021/05/23 13:22:34;;;;;;;3.92;2.00;;;;;;;;;;5058339;28;20274;-72
2021/05/23 13:25:02;;;;;;;6.75;2.15;;;;;;;;;;5058257;28;20244;-70
2021/05/23 13:27:28;;;;;;;5.65;1.98;;;;;;;;;;5067262;28;20544;-71
2021/05/23 13:29:53;;;;;;;5.38;1.70;;;;;;;;;;5058738;28;20205;-70
2021/05/23 13:32:18;;;;;;;2.90;1.95;;;;;;;;;;5065121;28;20338;-73
2021/05/23 13:34:43;;;;;;;3.47;1.42;;;;;;;;;;5064809;28;20653;-71
2021/05/23 13:37:08;;;;;;;3.23;1.80;;;;;;;;;;5063144;28;20216;-71
2021/05/23 13:39:34;;;;;;;4.43;1.67;;;;;;;;;;5059798;28;20430;-71
2021/05/23 13:42:00;;;;;;;4.55;1.73;;;;;;;;;;5060153;28;20181;-69
2021/05/23 13:44:25;;;;;;;4.38;1.58;;;;;;;;;;5059888;28;20181;-70
2021/05/23 13:46:50;;;;;;;6.23;1.63;;;;;;;;;;5061314;28;20238;-70
2021/05/23 13:49:16;;;;;;;2.45;1.20;;;;;;;;;;5057913;28;20473;-72
2021/05/23 13:51:42;;;;;;;4.70;1.88;;;;;;;;;;5058284;28;20544;-72
2021/05/23 13:54:08;;;;;;;3.88;1.65;;;;;;;;;;5056599;28;20246;-73
2021/05/23 13:56:33;;;;;;;3.65;1.83;;;;;;;;;;5060413;28;20180;-71
2021/05/23 13:59:00;;;;;;;4.15;2.05;;;;;;;;;;5051375;28;20173;-71
2021/05/23 14:01:26;;;;;;;7.32;2.90;;;;;;;;;;5061507;28;20176;-72
2021/05/23 14:03:51;;;;;;;3.80;2.00;;;;;;;;;;5060936;28;20193;-70
2021/05/23 14:06:16;;;;;;;3.08;1.40;;;;;;;;;;5061619;28;20908;-70
2021/05/23 14:08:41;;;;;;;5.22;2.35;;;;;;;;;;5055802;28;20200;-71
2021/05/23 14:11:07;;;;;;;3.10;1.30;;;;;;;;;;5062410;28;20197;-71
2021/05/23 14:13:34;;;;;;;5.43;1.40;;;;;;;;;;5056864;28;20544;-73
2021/05/23 14:16:01;;;;;;;4.40;1.50;;;;;;;;;;5060382;28;20311;-72
2021/05/23 14:18:26;;;;;;;4.80;2.15;;;;;;;;;;5056505;28;20177;-70
2021/05/23 14:20:51;;;;;;;2.63;1.33;;;;;;;;;;5059489;28;20229;-70
2021/05/23 14:23:17;;;;;;;2.20;1.10;;;;;;;;;;5058888;28;20666;-69
2021/05/23 14:25:42;;;;;;;3.35;1.10;;;;;;;;;;5060550;28;20197;-70